METAR Data
IDs: Format: Raw Decoded Include TAF

Data at: 1354 UTC 26 Feb 2021

KJWN 261335Z AUTO VRB04KT 10SM OVC046 08/M01 A3009 RMK A01